createdAt,value
2022-08-28T00:00:55.039Z,100104.78
2022-08-28T00:05:59.963Z,100109.91
2022-08-28T00:11:02.717Z,100115.81
2022-08-28T00:16:06.801Z,100115.25
2022-08-28T00:21:11.269Z,100113.41
2022-08-28T00:26:34.619Z,100123.03
2022-08-28T00:31:38.488Z,100121.59
2022-08-28T00:36:42.731Z,100123.00
2022-08-28T00:41:45.498Z,100116.69
2022-08-28T00:46:49.933Z,100108.69
2022-08-28T00:52:09.079Z,100117.72
2022-08-28T00:57:17.199Z,100101.34
2022-08-28T01:02:20.286Z,100099.28
2022-08-28T01:07:24.487Z,100087.84
2022-08-28T01:12:30.279Z,100094.00
2022-08-28T01:17:35.198Z,100099.75
2022-08-28T01:22:41.996Z,100101.22
2022-08-28T01:27:46.005Z,100104.06
2022-08-28T01:32:53.707Z,100115.75
2022-08-28T01:37:57.144Z,100125.78
2022-08-28T01:43:10.028Z,100128.44
2022-08-28T01:48:13.643Z,100124.59
2022-08-28T01:53:18.337Z,100119.69
2022-08-28T01:58:24.442Z,100124.56
2022-08-28T02:03:30.280Z,100131.75
2022-08-28T02:08:33.007Z,100133.56
2022-08-28T02:13:38.878Z,100136.44
2022-08-28T02:18:41.776Z,100146.06
2022-08-28T02:23:46.151Z,100139.50
2022-08-28T02:28:50.269Z,100142.16
2022-08-28T02:33:53.051Z,100151.75
2022-08-28T02:38:57.964Z,100150.50
2022-08-28T02:44:02.403Z,100143.34
2022-08-28T02:49:05.089Z,100151.53
2022-08-28T02:54:07.861Z,100155.56
2022-08-28T02:59:11.863Z,100146.97
2022-08-28T03:04:14.555Z,100150.88
2022-08-28T03:09:17.284Z,100144.47
2022-08-28T03:14:21.953Z,100147.59
2022-08-28T03:19:24.997Z,100150.66
2022-08-28T03:24:28.837Z,100155.16
2022-08-28T03:29:33.344Z,100154.34
2022-08-28T03:34:36.087Z,100157.81
2022-08-28T03:39:38.817Z,100165.34
2022-08-28T03:44:42.856Z,100165.94
2022-08-28T03:49:46.352Z,100168.59
2022-08-28T03:54:49.147Z,100170.22
2022-08-28T03:59:54.803Z,100180.53
2022-08-28T04:04:58.058Z,100185.63
2022-08-28T04:10:00.880Z,100189.50
2022-08-28T04:15:06.974Z,100192.94
2022-08-28T04:20:11.963Z,100191.72
2022-08-28T04:25:14.835Z,100189.59
2022-08-28T04:30:19.960Z,100196.34
2022-08-28T04:35:23.106Z,100199.72
2022-08-28T04:40:26.100Z,100205.38
2022-08-28T04:45:30.461Z,100206.97
2022-08-28T04:50:33.672Z,100210.84
2022-08-28T04:55:54.503Z,100213.50
2022-08-28T05:00:59.898Z,100215.38
2022-08-28T05:06:03.619Z,100212.13
2022-08-28T05:11:27.315Z,100214.81
2022-08-28T05:16:44.110Z,100220.72
2022-08-28T05:21:47.128Z,100216.47
2022-08-28T05:26:50.010Z,100226.59
2022-08-28T05:31:54.551Z,100222.97
2022-08-28T05:36:57.284Z,100237.69
2022-08-28T05:42:00.060Z,100240.16
2022-08-28T05:47:04.255Z,100252.94
2022-08-28T05:52:07.002Z,100262.31
2022-08-28T05:57:10.904Z,100266.78
2022-08-28T06:02:15.069Z,100275.16
2022-08-28T06:07:19.302Z,100264.25
2022-08-28T06:12:22.066Z,100264.03
2022-08-28T06:17:26.117Z,100272.78
2022-08-28T06:22:28.937Z,100276.09
2022-08-28T06:27:33.571Z,100284.44
2022-08-28T06:32:37.687Z,100288.13
2022-08-28T06:37:40.399Z,100293.91
2022-08-28T06:42:43.103Z,100301.34
2022-08-28T06:47:48.582Z,100290.13
2022-08-28T06:52:53.617Z,100291.00
2022-08-28T06:57:56.311Z,100295.59
2022-08-28T07:03:00.666Z,100301.53
2022-08-28T07:08:03.796Z,100298.53
2022-08-28T07:13:06.881Z,100306.97
2022-08-28T07:18:11.083Z,100306.97
2022-08-28T07:23:13.911Z,100320.22
2022-08-28T07:28:16.953Z,100307.56
2022-08-28T07:33:21.188Z,100308.00
2022-08-28T07:38:25.299Z,100316.00
2022-08-28T07:43:45.653Z,100317.22
2022-08-28T07:48:50.289Z,100330.25
2022-08-28T07:53:53.403Z,100330.09
2022-08-28T07:58:57.738Z,100332.88
2022-08-28T08:04:02.383Z,100327.56
2022-08-28T08:09:06.318Z,100328.78
2022-08-28T08:14:10.034Z,100331.91
2022-08-28T08:19:14.937Z,100334.50
2022-08-28T08:24:21.033Z,100338.34
2022-08-28T08:29:24.758Z,100339.28
2022-08-28T08:34:28.792Z,100345.72
2022-08-28T08:39:31.866Z,100342.06
2022-08-28T08:44:38.285Z,100335.28
2022-08-28T08:49:44.914Z,100342.06
2022-08-28T08:54:59.364Z,100346.28
2022-08-28T09:00:03.736Z,100345.09
2022-08-28T09:05:10.458Z,100343.47
2022-08-28T09:10:15.576Z,100336.91
2022-08-28T09:15:22.260Z,100330.97
2022-08-28T09:20:32.801Z,100335.28
2022-08-28T09:25:52.025Z,100349.66
2022-08-28T09:30:59.185Z,100349.47
2022-08-28T09:36:31.890Z,100354.59
2022-08-28T09:41:55.194Z,100345.94
2022-08-28T09:46:58.271Z,100347.59
2022-08-28T09:52:20.810Z,100347.59
2022-08-28T09:57:27.316Z,100345.06
2022-08-28T10:02:39.252Z,100346.31
2022-08-28T10:07:48.654Z,100347.13
2022-08-28T10:13:02.040Z,100346.03
2022-08-28T10:18:18.481Z,100354.06
2022-08-28T10:23:28.974Z,100356.13
2022-08-28T10:28:43.017Z,100352.19
2022-08-28T10:34:11.077Z,100344.97
2022-08-28T10:39:25.242Z,100340.78
2022-08-28T10:44:31.803Z,100353.06
2022-08-28T10:49:38.141Z,100344.78
2022-08-28T10:54:47.030Z,100341.00
2022-08-28T10:59:51.671Z,100332.72
2022-08-28T11:04:58.486Z,100327.84
2022-08-28T11:15:50.290Z,100323.69
2022-08-28T11:20:58.369Z,100330.41
2022-08-28T11:26:05.250Z,100330.84
2022-08-28T11:31:31.597Z,100340.13
2022-08-28T11:36:58.186Z,100347.31
2022-08-28T11:42:39.533Z,100345.94
2022-08-28T11:47:49.031Z,100345.06
2022-08-28T11:53:24.657Z,100334.47
2022-08-28T11:58:31.745Z,100331.72
2022-08-28T12:03:39.067Z,100336.81
2022-08-28T12:09:12.271Z,100338.34
2022-08-28T12:15:07.680Z,100328.03
2022-08-28T12:20:17.808Z,100327.63
2022-08-28T12:25:29.037Z,100323.81
2022-08-28T12:30:33.627Z,100324.22
2022-08-28T12:35:38.102Z,100324.25
2022-08-28T12:40:50.390Z,100316.72
2022-08-28T12:45:55.645Z,100319.53
2022-08-28T12:51:03.144Z,100314.78
2022-08-28T12:56:06.224Z,100321.81
2022-08-28T13:01:11.510Z,100318.25
2022-08-28T13:06:23.644Z,100313.84
2022-08-28T13:11:26.432Z,100313.78
2022-08-28T13:16:38.635Z,100312.50
2022-08-28T13:21:58.526Z,100303.50
2022-08-28T13:27:04.191Z,100299.34
2022-08-28T13:32:09.116Z,100301.56
2022-08-28T13:37:44.453Z,100294.75
2022-08-28T13:42:47.970Z,100302.59
2022-08-28T13:47:50.683Z,100299.81
2022-08-28T13:52:54.787Z,100290.72
2022-08-28T13:57:57.654Z,100294.34
2022-08-28T14:03:18.012Z,100295.19
2022-08-28T14:08:22.658Z,100298.44
2022-08-28T14:13:27.583Z,100291.50
2022-08-28T14:18:30.324Z,100290.59
2022-08-28T14:23:34.578Z,100291.19
2022-08-28T14:28:37.334Z,100295.78
2022-08-28T14:33:40.357Z,100299.38
2022-08-28T14:38:47.238Z,100298.59
2022-08-28T14:43:50.329Z,100295.44
2022-08-28T14:48:53.181Z,100296.84
2022-08-28T14:53:59.034Z,100292.78
2022-08-28T14:59:03.232Z,100297.66
2022-08-28T15:04:07.510Z,100302.75
2022-08-28T15:09:12.107Z,100300.59
2022-08-28T15:14:14.844Z,100290.44
2022-08-28T15:19:18.385Z,100293.72
2022-08-28T15:24:24.703Z,100287.41
2022-08-28T15:29:28.263Z,100282.47
2022-08-28T15:34:31.156Z,100294.16
2022-08-28T15:39:53.052Z,100291.66
2022-08-28T15:44:55.944Z,100285.72
2022-08-28T15:50:00.464Z,100285.19
2022-08-28T15:55:06.248Z,100278.66
2022-08-28T16:00:10.638Z,100285.50
2022-08-28T16:05:13.865Z,100284.63
2022-08-28T16:10:19.477Z,100284.44
2022-08-28T16:15:22.497Z,100280.25
2022-08-28T16:20:25.668Z,100284.75
2022-08-28T16:25:29.835Z,100287.66
2022-08-28T16:30:33.316Z,100277.56
2022-08-28T16:35:40.687Z,100288.66
2022-08-28T16:40:52.672Z,100284.88
2022-08-28T16:45:55.555Z,100286.19
2022-08-28T16:50:58.444Z,100299.03
2022-08-28T16:56:02.749Z,100294.06
2022-08-28T17:01:06.382Z,100290.94
2022-08-28T17:06:12.851Z,100289.94
2022-08-28T17:11:17.266Z,100293.28
2022-08-28T17:16:21.080Z,100298.50
2022-08-28T17:21:41.927Z,100309.53
2022-08-28T17:26:46.060Z,100305.31
2022-08-28T17:31:48.904Z,100311.53
2022-08-28T17:36:52.713Z,100308.38
2022-08-28T17:41:57.607Z,100307.63
2022-08-28T17:47:00.856Z,100306.44
2022-08-28T17:52:04.120Z,100306.56
2022-08-28T17:57:08.498Z,100309.16
2022-08-28T18:02:11.683Z,100315.97
2022-08-28T18:07:14.519Z,100314.50
2022-08-28T18:12:18.685Z,100327.13
2022-08-28T18:17:21.538Z,100332.56
2022-08-28T18:22:29.470Z,100344.28
2022-08-28T18:27:34.992Z,100345.19
2022-08-28T18:32:38.023Z,100350.47
2022-08-28T18:37:41.178Z,100359.59
2022-08-28T18:42:45.476Z,100368.53
2022-08-28T18:47:48.195Z,100371.94
2022-08-28T18:52:51.466Z,100370.13
2022-08-28T18:57:56.132Z,100382.13
2022-08-28T19:03:00.010Z,100378.31
2022-08-28T19:08:02.960Z,100379.81
2022-08-28T19:13:08.472Z,100386.25
2022-08-28T19:18:11.290Z,100395.31
2022-08-28T19:23:17.405Z,100392.88
2022-08-28T19:28:22.206Z,100396.41
2022-08-28T19:33:25.060Z,100411.84
2022-08-28T19:38:31.168Z,100411.47
2022-08-28T19:43:43.114Z,100409.63
2022-08-28T19:48:46.929Z,100420.75
2022-08-28T19:53:56.853Z,100423.59
2022-08-28T19:59:03.730Z,100431.84
2022-08-28T20:04:08.081Z,100440.69
2022-08-28T20:09:13.058Z,100439.44
2022-08-28T20:14:19.304Z,100434.91
2022-08-28T20:19:22.618Z,100432.88
2022-08-28T20:24:25.418Z,100430.22
2022-08-28T20:29:29.608Z,100440.66
2022-08-28T20:34:32.495Z,100437.59
2022-08-28T20:39:37.016Z,100436.78
2022-08-28T20:44:41.301Z,100450.28
2022-08-28T20:49:44.198Z,100447.81
2022-08-28T20:54:47.277Z,100447.38
2022-08-28T20:59:54.087Z,100453.31
2022-08-28T21:04:57.097Z,100459.25
2022-08-28T21:10:05.456Z,100463.75
2022-08-28T21:15:13.107Z,100466.63
2022-08-28T21:20:16.513Z,100471.31
2022-08-28T21:25:21.099Z,100484.78
2022-08-28T21:30:25.468Z,100477.66
2022-08-28T21:35:32.709Z,100485.44
2022-08-28T21:40:36.230Z,100494.25
2022-08-28T21:45:40.342Z,100502.84
2022-08-28T21:50:43.399Z,100500.19
2022-08-28T21:55:49.031Z,100507.97
2022-08-28T22:00:56.814Z,100505.72
2022-08-28T22:05:59.616Z,100513.09
2022-08-28T22:11:02.634Z,100503.25
2022-08-28T22:16:07.456Z,100512.47
2022-08-28T22:21:31.097Z,100504.88
2022-08-28T22:26:33.940Z,100512.41
2022-08-28T22:31:45.495Z,100515.28
2022-08-28T22:36:49.162Z,100518.34
2022-08-28T22:41:52.020Z,100522.59
2022-08-28T22:46:56.142Z,100530.16
2022-08-28T22:51:58.857Z,100527.28
2022-08-28T22:57:02.289Z,100536.66
2022-08-28T23:02:06.488Z,100523.97
2022-08-28T23:07:09.190Z,100531.53
2022-08-28T23:12:11.890Z,100538.25
2022-08-28T23:17:16.921Z,100533.31
2022-08-28T23:22:19.917Z,100538.63
2022-08-28T23:27:38.202Z,100549.41
2022-08-28T23:32:42.490Z,100546.06
2022-08-28T23:37:48.879Z,100540.69
2022-08-28T23:42:55.592Z,100542.03
2022-08-28T23:47:59.654Z,100552.44
2022-08-28T23:53:02.609Z,100548.81
2022-08-28T23:58:05.750Z,100550.38
